Time;durP1;ratioP1;P1;durP2;ratioP2;P2;SDS_P1;SDS_P2;PMS_P1;PMS_P2;Temp;Humidity;BMP_temperature;BMP_pressure;BME280_temperature;BME280_humidity;BME280_pressure;Samples;Min_cycle;Max_cycle;Signal;HPM_P1;HPM_P2
2023/07/20 00:00:41;;;;;;;9.05;2.13;;;17.70;99.90;;;;;;4180449;28;20608;-84
2023/07/20 00:02:41;;;;;;;9.13;2.25;;;17.70;99.90;;;;;;4147684;28;20204;-87
2023/07/20 00:04:42;;;;;;;9.65;2.25;;;17.60;99.90;;;;;;4147597;28;20661;-87
2023/07/20 00:06:43;;;;;;;5.07;2.13;;;17.60;99.90;;;;;;4163935;28;20267;-86
2023/07/20 00:08:44;;;;;;;8.85;2.28;;;17.60;99.90;;;;;;4147540;28;20196;-86
2023/07/20 00:10:44;;;;;;;13.57;2.17;;;17.60;99.90;;;;;;4150185;28;20181;-85
2023/07/20 00:12:47;;;;;;;8.07;2.17;;;17.60;99.90;;;;;;4166910;28;20187;-84
2023/07/20 00:14:48;;;;;;;8.60;2.40;;;17.70;99.90;;;;;;4167318;28;20183;-86
2023/07/20 00:16:55;;;;;;;8.13;2.22;;;17.70;99.90;;;;;;4150893;28;20171;-84
2023/07/20 00:18:56;;;;;;;9.63;2.28;;;17.90;99.90;;;;;;4166987;28;20195;-86
2023/07/20 00:20:57;;;;;;;12.93;2.88;;;18.00;99.90;;;;;;4167008;28;20172;-86
2023/07/20 00:22:58;;;;;;;10.00;2.38;;;18.00;99.90;;;;;;4150908;28;20243;-84
2023/07/20 00:24:58;;;;;;;7.30;2.40;;;18.10;99.90;;;;;;4150716;28;20176;-84
2023/07/20 00:27:00;;;;;;;9.75;2.75;;;18.10;99.90;;;;;;4166991;28;20263;-87
2023/07/20 00:29:01;;;;;;;9.95;2.33;;;18.00;99.90;;;;;;4183383;28;20266;-87
2023/07/20 00:31:02;;;;;;;11.02;2.72;;;18.00;99.90;;;;;;4167157;28;20227;-87
2023/07/20 00:33:04;;;;;;;7.65;2.45;;;18.10;99.90;;;;;;4150348;28;20215;-86
2023/07/20 00:35:04;;;;;;;13.80;2.88;;;18.10;99.90;;;;;;4166538;28;20195;-86
2023/07/20 00:37:05;;;;;;;7.45;2.50;;;18.10;99.90;;;;;;4183679;28;20171;-86
2023/07/20 00:39:06;;;;;;;11.15;2.88;;;17.90;99.90;;;;;;4168198;28;20188;-84
2023/07/20 00:41:06;;;;;;;13.18;2.88;;;17.90;99.90;;;;;;4166913;28;20669;-85
2023/07/20 00:43:09;;;;;;;9.10;2.42;;;18.00;99.90;;;;;;4166679;28;20200;-86
2023/07/20 00:45:09;;;;;;;10.10;2.70;;;17.90;99.90;;;;;;4150489;28;20169;-86
2023/07/20 00:47:10;;;;;;;9.27;2.90;;;17.90;99.90;;;;;;4167778;28;20707;-86
2023/07/20 00:49:11;;;;;;;12.30;2.90;;;17.80;99.90;;;;;;4149930;28;20678;-86
2023/07/20 00:51:12;;;;;;;13.73;2.83;;;17.90;99.90;;;;;;4150359;28;20180;-87
2023/07/20 00:53:13;;;;;;;12.10;2.97;;;17.80;99.90;;;;;;4166668;28;20196;-85
2023/07/20 00:55:14;;;;;;;16.92;3.47;;;17.80;99.90;;;;;;4166599;28;20176;-87
2023/07/20 00:57:17;;;;;;;13.68;2.83;;;17.80;99.90;;;;;;4150298;28;20223;-87
2023/07/20 00:59:18;;;;;;;12.82;3.08;;;17.80;99.90;;;;;;4149769;28;20620;-86
2023/07/20 01:01:19;;;;;;;12.32;2.78;;;17.70;99.90;;;;;;4150043;28;20165;-85
2023/07/20 01:03:21;;;;;;;8.95;3.03;;;17.80;99.90;;;;;;4150305;28;20255;-86
2023/07/20 01:05:35;;;;;;;12.35;3.17;;;17.90;99.90;;;;;;4166628;28;20661;-85
2023/07/20 01:07:50;;;;;;;13.70;3.35;;;18.00;99.90;;;;;;4166542;28;20266;-87
2023/07/20 01:10:16;;;;;;;12.07;3.10;;;17.90;99.90;;;;;;4166480;28;20268;-87
2023/07/20 01:12:32;;;;;;;12.02;3.22;;;17.80;99.90;;;;;;4149557;28;20172;-87
2023/07/20 01:14:34;;;;;;;11.13;3.15;;;17.90;99.90;;;;;;4166267;28;20235;-86
2023/07/20 01:16:35;;;;;;;12.63;3.33;;;17.90;99.90;;;;;;4149984;28;20169;-87
2023/07/20 01:18:35;;;;;;;15.13;3.75;;;17.80;99.90;;;;;;4166256;28;20220;-86
2023/07/20 01:20:37;;;;;;;13.20;3.78;;;17.80;99.90;;;;;;4150025;28;20268;-86
2023/07/20 01:22:52;;;;;;;13.85;3.58;;;17.70;99.90;;;;;;4150018;28;20729;-86
2023/07/20 01:24:59;;;;;;;12.73;4.70;;;17.90;99.90;;;;;;4167234;28;20514;-86
2023/07/20 01:27:11;;;;;;;16.27;4.75;;;17.80;99.90;;;;;;4149514;28;20189;-87
2023/07/20 01:29:23;;;;;;;15.60;5.28;;;17.80;99.90;;;;;;4167191;28;20288;-85
2023/07/20 01:31:33;;;;;;;15.32;4.20;;;17.80;99.90;;;;;;4166074;28;20172;-86
2023/07/20 01:33:35;;;;;;;13.90;4.85;;;17.90;99.90;;;;;;4166048;28;20243;-87
2023/07/20 01:35:37;;;;;;;14.77;4.57;;;17.90;99.90;;;;;;4149562;28;20204;-86
2023/07/20 01:37:39;;;;;;;19.83;4.88;;;17.90;99.90;;;;;;4165883;28;20215;-85
2023/07/20 01:39:40;;;;;;;17.75;4.47;;;17.90;99.90;;;;;;4149210;28;20185;-85
2023/07/20 01:41:42;;;;;;;12.35;4.82;;;17.80;99.90;;;;;;4149639;28;20195;-86
2023/07/20 01:43:43;;;;;;;17.73;4.78;;;17.80;99.90;;;;;;4149344;28;20180;-87
2023/07/20 01:45:44;;;;;;;14.60;4.57;;;17.80;99.90;;;;;;4165908;28;20180;-86
2023/07/20 01:47:44;;;;;;;16.35;4.53;;;17.80;99.90;;;;;;4165751;28;20164;-87
2023/07/20 01:49:45;;;;;;;15.95;5.15;;;17.80;99.90;;;;;;4165747;28;20656;-87
2023/07/20 01:51:46;;;;;;;14.30;4.53;;;17.80;99.90;;;;;;4165706;28;20199;-87
2023/07/20 01:53:46;;;;;;;15.77;5.20;;;17.90;99.90;;;;;;4165466;28;20212;-85
2023/07/20 01:55:49;;;;;;;15.30;5.72;;;18.00;99.90;;;;;;4149478;28;20165;-85
2023/07/20 01:57:49;;;;;;;16.70;5.57;;;17.90;99.90;;;;;;4165681;28;20176;-87
2023/07/20 01:59:50;;;;;;;18.05;5.90;;;17.80;99.90;;;;;;4149037;28;20668;-87
2023/07/20 02:01:52;;;;;;;14.05;5.90;;;17.80;99.90;;;;;;4165532;28;20176;-87
2023/07/20 02:03:53;;;;;;;18.92;6.07;;;17.70;99.90;;;;;;4149179;28;20533;-87
2023/07/20 02:05:53;;;;;;;19.17;6.18;;;17.70;99.90;;;;;;4149334;28;20180;-85
2023/07/20 02:07:54;;;;;;;22.25;6.28;;;17.60;99.90;;;;;;4165364;28;20173;-85
2023/07/20 02:09:56;;;;;;;15.13;5.85;;;17.60;99.90;;;;;;4149113;28;20199;-86
2023/07/20 02:11:57;;;;;;;18.85;5.72;;;17.60;99.90;;;;;;4181830;28;20167;-86
2023/07/20 02:13:57;;;;;;;17.40;6.00;;;17.60;99.90;;;;;;4149064;28;20201;-87
2023/07/20 02:15:58;;;;;;;14.48;5.47;;;17.60;99.90;;;;;;4165551;28;20675;-87
2023/07/20 02:17:59;;;;;;;11.48;5.03;;;17.50;99.90;;;;;;4148828;28;20181;-85
2023/07/20 02:19:59;;;;;;;13.35;6.03;;;17.50;99.90;;;;;;4181615;28;20211;-87
2023/07/20 02:22:00;;;;;;;17.35;5.63;;;17.50;99.90;;;;;;4148847;28;20169;-86
2023/07/20 02:24:01;;;;;;;21.50;6.00;;;17.50;99.90;;;;;;4181820;28;20639;-87
2023/07/20 02:26:02;;;;;;;15.40;5.90;;;17.50;99.90;;;;;;4148675;28;20596;-85
2023/07/20 02:28:04;;;;;;;19.17;6.15;;;17.60;99.90;;;;;;4182114;28;20234;-86
2023/07/20 02:30:05;;;;;;;19.42;6.55;;;17.50;99.90;;;;;;4165182;28;20180;-87
2023/07/20 02:32:06;;;;;;;16.85;5.95;;;17.50;99.90;;;;;;4148333;28;20303;-86
2023/07/20 02:34:08;;;;;;;14.30;5.68;;;17.50;99.90;;;;;;4148774;28;20216;-87
2023/07/20 02:36:08;;;;;;;18.73;6.50;;;17.50;99.90;;;;;;4148449;28;20633;-84
2023/07/20 02:38:09;;;;;;;14.10;5.95;;;17.40;99.90;;;;;;4148477;28;20183;-86
2023/07/20 02:40:11;;;;;;;20.27;6.22;;;17.40;99.90;;;;;;4148633;28;20256;-87
2023/07/20 02:42:12;;;;;;;18.20;6.10;;;17.50;99.90;;;;;;4148782;28;20177;-85
2023/07/20 02:44:14;;;;;;;16.63;6.55;;;17.60;99.90;;;;;;4148601;28;20224;-87
2023/07/20 02:46:15;;;;;;;17.20;6.38;;;17.60;99.90;;;;;;4148606;28;20176;-85
2023/07/20 02:48:15;;;;;;;17.42;6.68;;;17.70;99.90;;;;;;4181283;28;20163;-87
2023/07/20 02:50:16;;;;;;;19.48;6.78;;;17.70;99.90;;;;;;4148381;28;20184;-86
2023/07/20 02:52:17;;;;;;;17.35;6.90;;;17.50;99.90;;;;;;4181675;28;20155;-84
2023/07/20 02:54:18;;;;;;;18.92;6.40;;;17.60;99.90;;;;;;4166023;28;20212;-86
2023/07/20 02:56:18;;;;;;;18.25;6.80;;;17.70;99.90;;;;;;4148331;28;20164;-86
2023/07/20 02:58:19;;;;;;;20.02;7.13;;;17.60;99.90;;;;;;4180607;28;20163;-84
2023/07/20 03:00:21;;;;;;;16.75;6.70;;;17.50;99.90;;;;;;4148203;28;20165;-87
2023/07/20 03:02:22;;;;;;;20.02;7.47;;;17.40;99.90;;;;;;4164740;28;20172;-84
2023/07/20 03:04:25;;;;;;;19.17;7.53;;;17.30;99.90;;;;;;4148180;28;20164;-84
2023/07/20 03:06:26;;;;;;;21.10;8.00;;;17.30;99.90;;;;;;4148369;28;20184;-84
2023/07/20 03:08:26;;;;;;;18.38;8.18;;;17.40;99.90;;;;;;4147949;28;20196;-84
2023/07/20 03:10:27;;;;;;;19.38;7.95;;;17.40;99.90;;;;;;4164346;28;20280;-85
2023/07/20 03:12:30;;;;;;;14.70;7.55;;;17.40;99.90;;;;;;4148339;28;20234;-86
2023/07/20 03:14:31;;;;;;;17.40;7.53;;;17.30;99.90;;;;;;4164455;28;20236;-87
2023/07/20 03:16:32;;;;;;;25.77;8.25;;;17.30;99.90;;;;;;4148427;28;20169;-87
2023/07/20 03:18:35;;;;;;;22.70;7.80;;;17.30;99.90;;;;;;4148446;28;20195;-86
2023/07/20 03:20:36;;;;;;;19.70;7.72;;;17.30;99.90;;;;;;4164536;28;20586;-86
2023/07/20 03:22:37;;;;;;;23.23;8.35;;;17.40;99.90;;;;;;4147733;28;20588;-86
2023/07/20 03:24:38;;;;;;;20.33;7.70;;;17.40;99.90;;;;;;4181012;28;20195;-85
2023/07/20 03:26:39;;;;;;;19.58;7.72;;;17.30;99.90;;;;;;4147958;28;20188;-87
2023/07/20 03:28:41;;;;;;;20.88;8.30;;;17.50;99.90;;;;;;4180833;28;20194;-87
2023/07/20 03:30:44;;;;;;;19.25;8.40;;;17.40;99.90;;;;;;4148328;28;20165;-87
2023/07/20 03:32:45;;;;;;;23.88;8.90;;;17.50;99.90;;;;;;4148017;28;20284;-86
2023/07/20 03:34:46;;;;;;;22.55;8.27;;;17.50;99.90;;;;;;4164286;28;20778;-85
2023/07/20 03:36:48;;;;;;;20.67;9.32;;;17.60;99.90;;;;;;4164005;28;20172;-87
2023/07/20 03:38:50;;;;;;;28.63;9.23;;;17.60;99.90;;;;;;4147765;28;20200;-87
2023/07/20 03:40:51;;;;;;;19.58;7.80;;;17.50;99.90;;;;;;4148044;28;20252;-87
2023/07/20 03:42:52;;;;;;;23.38;8.27;;;17.50;99.90;;;;;;4148066;28;20519;-87
2023/07/20 03:44:53;;;;;;;22.52;8.50;;;17.50;99.90;;;;;;4165369;28;20251;-87
2023/07/20 03:46:54;;;;;;;15.75;7.78;;;17.40;99.90;;;;;;4151229;28;20181;-87
2023/07/20 03:48:55;;;;;;;20.80;8.35;;;17.50;99.90;;;;;;4167550;28;20271;-87
2023/07/20 03:50:55;;;;;;;24.08;8.55;;;17.50;99.90;;;;;;4151323;28;20184;-87
2023/07/20 03:52:56;;;;;;;19.40;8.95;;;17.40;99.90;;;;;;4167473;28;20172;-87
2023/07/20 03:54:57;;;;;;;19.65;8.95;;;17.60;99.90;;;;;;4151130;28;20192;-87
2023/07/20 03:56:58;;;;;;;22.60;8.85;;;17.70;99.90;;;;;;4151261;28;20169;-84
2023/07/20 03:58:58;;;;;;;20.23;8.23;;;17.70;99.90;;;;;;4167262;28;20192;-84
2023/07/20 04:00:59;;;;;;;16.05;8.25;;;17.60;99.90;;;;;;4150849;28;20211;-85
2023/07/20 04:03:00;;;;;;;20.15;8.00;;;17.50;99.90;;;;;;4150814;28;20180;-85
2023/07/20 04:05:01;;;;;;;15.05;7.80;;;17.60;99.90;;;;;;4151086;28;20242;-85
2023/07/20 04:07:02;;;;;;;17.95;8.57;;;17.70;99.90;;;;;;4151072;28;20181;-87
2023/07/20 04:09:04;;;;;;;18.80;7.38;;;17.70;99.90;;;;;;4166841;28;20266;-88
2023/07/20 04:11:05;;;;;;;19.08;8.20;;;17.60;99.90;;;;;;4167323;28;20263;-86
2023/07/20 04:13:07;;;;;;;14.77;7.40;;;17.60;99.90;;;;;;4168402;28;20165;-87
2023/07/20 04:15:08;;;;;;;19.65;7.43;;;17.60;99.90;;;;;;4167265;28;20652;-84
2023/07/20 04:17:12;;;;;;;19.48;8.50;;;17.70;99.90;;;;;;4167086;28;20173;-85
2023/07/20 04:19:12;;;;;;;22.27;8.82;;;17.60;99.90;;;;;;4167496;28;20199;-87
2023/07/20 04:21:13;;;;;;;21.25;8.60;;;17.70;99.90;;;;;;4183926;28;20693;-87
2023/07/20 04:23:14;;;;;;;17.15;7.75;;;17.70;99.90;;;;;;4166734;28;20174;-85
2023/07/20 04:25:15;;;;;;;19.27;8.40;;;17.80;99.90;;;;;;4166991;28;20164;-87
2023/07/20 04:27:15;;;;;;;16.75;8.20;;;17.90;99.90;;;;;;4150712;28;20185;-85
2023/07/20 04:29:16;;;;;;;23.52;7.50;;;18.00;99.90;;;;;;4166859;28;20196;-87
2023/07/20 04:31:18;;;;;;;14.55;8.07;;;18.00;99.90;;;;;;4150841;28;20645;-87
2023/07/20 04:33:19;;;;;;;16.17;8.52;;;17.90;99.90;;;;;;4150533;28;20207;-87
2023/07/20 04:35:45;;;;;;;18.33;8.75;;;17.80;99.90;;;;;;4167132;28;20187;-87
2023/07/20 04:37:47;;;;;;;22.70;9.18;;;17.70;99.90;;;;;;4167146;28;20172;-87
2023/07/20 04:39:51;;;;;;;21.27;8.88;;;17.70;99.90;;;;;;4166760;28;20215;-85
2023/07/20 04:41:52;;;;;;;23.17;9.13;;;17.60;99.90;;;;;;4150016;28;20565;-85
2023/07/20 04:43:53;;;;;;;22.27;8.98;;;17.60;99.90;;;;;;4166670;28;20658;-87
2023/07/20 04:46:00;;;;;;;17.35;8.38;;;17.60;99.90;;;;;;4166992;28;20695;-87
2023/07/20 04:48:01;;;;;;;17.95;8.15;;;17.70;99.90;;;;;;4166812;28;20176;-87
2023/07/20 04:50:02;;;;;;;16.27;7.22;;;17.80;99.90;;;;;;4166758;28;20173;-87
2023/07/20 04:52:04;;;;;;;19.08;8.05;;;17.90;99.90;;;;;;4150478;28;20200;-86
2023/07/20 04:54:05;;;;;;;19.75;8.48;;;17.90;99.90;;;;;;4166834;28;20692;-85
2023/07/20 04:56:10;;;;;;;16.15;9.30;;;17.70;99.90;;;;;;4166466;28;20168;-87
2023/07/20 04:58:11;;;;;;;15.23;8.93;;;17.60;99.90;;;;;;4150092;28;20169;-87
2023/07/20 05:00:14;;;;;;;12.70;8.57;;;17.60;99.90;;;;;;4150526;28;20169;-87
2023/07/20 05:02:15;;;;;;;22.05;9.10;;;17.80;99.90;;;;;;4150081;28;20676;-87
2023/07/20 05:04:16;;;;;;;19.98;10.05;;;17.70;99.90;;;;;;4150321;28;20208;-87
2023/07/20 05:06:17;;;;;;;19.55;9.13;;;17.70;99.90;;;;;;4149837;28;20173;-87
2023/07/20 05:08:17;;;;;;;22.48;10.10;;;17.70;99.90;;;;;;4149781;28;20275;-88
2023/07/20 05:10:18;;;;;;;20.17;10.07;;;17.80;99.90;;;;;;4166412;28;20588;-85
2023/07/20 05:12:19;;;;;;;20.17;10.13;;;17.80;99.90;;;;;;4166311;28;20172;-88
2023/07/20 05:14:20;;;;;;;18.88;10.65;;;17.80;99.90;;;;;;4166182;28;20211;-85
2023/07/20 05:16:22;;;;;;;17.42;9.57;;;17.60;99.90;;;;;;4166599;28;20176;-87
2023/07/20 05:18:23;;;;;;;15.75;8.07;;;17.50;99.90;;;;;;4149535;28;20240;-85
2023/07/20 05:20:24;;;;;;;24.38;10.90;;;17.70;99.90;;;;;;4166155;28;20799;-87
2023/07/20 05:22:25;;;;;;;18.73;8.68;;;17.70;99.90;;;;;;4167304;28;20172;-87
2023/07/20 05:24:26;;;;;;;16.88;9.40;;;17.80;99.90;;;;;;4166126;28;20312;-84
2023/07/20 05:26:26;;;;;;;16.05;8.32;;;17.80;99.90;;;;;;4182368;28;20187;-84
2023/07/20 05:28:27;;;;;;;20.75;9.80;;;17.90;99.90;;;;;;4165790;28;20206;-85
2023/07/20 05:30:29;;;;;;;20.73;9.85;;;18.00;99.90;;;;;;4149693;28;20546;-87
2023/07/20 05:32:29;;;;;;;17.77;10.23;;;18.10;99.90;;;;;;4166044;28;20176;-85
2023/07/20 05:34:30;;;;;;;17.10;8.73;;;18.10;99.90;;;;;;4165695;28;20603;-85
2023/07/20 05:36:31;;;;;;;15.68;9.07;;;18.20;99.90;;;;;;4166047;28;20976;-87
2023/07/20 05:38:31;;;;;;;21.55;9.57;;;18.30;99.90;;;;;;4149291;28;20235;-87
2023/07/20 05:40:32;;;;;;;15.45;7.45;;;18.30;99.90;;;;;;4166730;28;20183;-88
2023/07/20 05:42:33;;;;;;;14.98;8.18;;;18.30;99.90;;;;;;4167103;28;20659;-85
2023/07/20 05:44:34;;;;;;;16.58;7.72;;;18.40;99.90;;;;;;4167117;28;20168;-88
2023/07/20 05:46:35;;;;;;;16.75;8.15;;;18.50;99.90;;;;;;4167019;28;20171;-86
2023/07/20 05:48:35;;;;;;;17.83;8.75;;;18.40;99.90;;;;;;4165608;28;20211;-88
2023/07/20 05:50:37;;;;;;;15.73;8.02;;;18.40;99.90;;;;;;4166882;28;20172;-88
2023/07/20 05:52:38;;;;;;;19.58;8.15;;;18.30;99.90;;;;;;4165609;28;20184;-88
2023/07/20 05:54:39;;;;;;;19.77;8.70;;;18.20;99.90;;;;;;4166747;28;20207;-88
2023/07/20 05:56:40;;;;;;;13.80;7.50;;;18.10;99.90;;;;;;4165586;28;20644;-85
2023/07/20 05:58:41;;;;;;;21.08;9.02;;;18.20;99.90;;;;;;4149136;28;20188;-88
2023/07/20 06:00:41;;;;;;;16.55;9.13;;;18.80;99.90;;;;;;4148966;28;20176;-85
2023/07/20 06:02:43;;;;;;;19.23;9.40;;;19.30;99.90;;;;;;4148940;28;20231;-87
2023/07/20 06:04:44;;;;;;;13.43;8.48;;;19.00;99.90;;;;;;4165601;28;20699;-85
2023/07/20 06:06:45;;;;;;;18.02;7.65;;;18.90;99.90;;;;;;4148867;28;20169;-88
2023/07/20 06:08:46;;;;;;;15.27;8.00;;;18.70;99.90;;;;;;4148749;28;20208;-87
2023/07/20 06:10:51;;;;;;;18.50;8.45;;;18.70;99.90;;;;;;4181984;28;20176;-87
2023/07/20 06:12:51;;;;;;;12.82;8.05;;;18.60;99.90;;;;;;4165391;28;20172;-85
2023/07/20 06:14:52;;;;;;;14.23;8.07;;;18.60;99.90;;;;;;4165173;28;20223;-86
2023/07/20 06:16:53;;;;;;;17.15;8.02;;;18.60;99.90;;;;;;4165240;28;20172;-87
2023/07/20 06:18:54;;;;;;;19.90;8.38;;;18.60;99.90;;;;;;4164979;28;20203;-87
2023/07/20 06:20:54;;;;;;;14.38;8.07;;;18.70;99.90;;;;;;4148841;28;20168;-85
2023/07/20 06:22:55;;;;;;;17.55;8.18;;;18.80;99.90;;;;;;4181915;28;20199;-88
2023/07/20 06:24:56;;;;;;;14.15;7.60;;;18.90;99.90;;;;;;4165206;28;20175;-85
2023/07/20 06:26:56;;;;;;;18.95;8.68;;;19.00;99.90;;;;;;4165265;28;20195;-87
2023/07/20 06:28:57;;;;;;;17.15;8.10;;;19.10;99.90;;;;;;4164854;28;20672;-87
2023/07/20 06:31:01;;;;;;;17.05;8.98;;;19.30;99.90;;;;;;4148588;28;20641;-88
2023/07/20 06:33:02;;;;;;;14.10;7.53;;;19.40;99.90;;;;;;4164944;28;20294;-88
2023/07/20 06:35:03;;;;;;;14.75;7.80;;;19.50;99.90;;;;;;4148715;28;20181;-88
2023/07/20 06:37:04;;;;;;;13.80;6.95;;;19.70;99.90;;;;;;4148462;28;20630;-86
2023/07/20 06:39:05;;;;;;;13.25;7.15;;;19.90;99.90;;;;;;4164864;28;20247;-87
2023/07/20 06:41:06;;;;;;;13.10;8.02;;;20.00;99.90;;;;;;4148792;28;20169;-88
2023/07/20 06:43:06;;;;;;;16.20;8.13;;;20.00;99.90;;;;;;4164859;28;20180;-87
2023/07/20 06:45:08;;;;;;;14.75;7.72;;;20.00;99.90;;;;;;4148556;28;20171;-87
2023/07/20 06:47:09;;;;;;;10.63;7.40;;;20.30;99.90;;;;;;4164617;28;20231;-85
2023/07/20 06:49:09;;;;;;;11.27;6.90;;;20.40;99.90;;;;;;4164799;28;20184;-87
2023/07/20 06:51:10;;;;;;;14.20;6.93;;;20.40;99.90;;;;;;4148569;28;20177;-88
2023/07/20 06:53:11;;;;;;;13.45;6.80;;;20.50;99.90;;;;;;4148315;28;20165;-88
2023/07/20 06:55:12;;;;;;;11.05;6.68;;;20.50;99.90;;;;;;4148432;28;20193;-89
2023/07/20 06:57:13;;;;;;;16.83;6.82;;;20.50;99.90;;;;;;4164866;28;20679;-85
2023/07/20 06:59:14;;;;;;;10.65;6.05;;;20.60;99.90;;;;;;4147718;28;20211;-84
2023/07/20 07:01:15;;;;;;;11.13;6.13;;;20.80;99.90;;;;;;4164340;28;20179;-87
2023/07/20 07:03:16;;;;;;;9.68;5.40;;;21.10;99.90;;;;;;4148157;28;20223;-88
2023/07/20 07:05:16;;;;;;;12.77;5.55;;;21.10;99.90;;;;;;4164695;28;20247;-85
2023/07/20 07:07:17;;;;;;;13.25;5.55;;;21.20;99.90;;;;;;4165897;28;20643;-85
2023/07/20 07:09:18;;;;;;;8.23;4.90;;;21.20;99.90;;;;;;4164373;28;20208;-85
2023/07/20 07:11:18;;;;;;;8.30;4.85;;;21.10;99.90;;;;;;4181129;28;20164;-87
2023/07/20 07:13:19;;;;;;;6.10;4.22;;;21.20;99.90;;;;;;4165387;28;20612;-85
2023/07/20 07:15:20;;;;;;;8.52;3.80;;;21.60;99.90;;;;;;4147883;28;20255;-88
2023/07/20 07:17:21;;;;;;;3.92;2.53;;;22.10;99.90;;;;;;4164372;28;20177;-85
2023/07/20 07:19:21;;;;;;;5.22;2.10;;;22.50;99.90;;;;;;4147797;28;20211;-85
2023/07/20 07:21:22;;;;;;;7.00;2.70;;;22.50;99.90;;;;;;4164149;28;20179;-84
2023/07/20 07:23:23;;;;;;;3.78;2.10;;;23.60;99.90;;;;;;4164356;28;20168;-86
2023/07/20 07:25:24;;;;;;;4.43;1.90;;;24.20;99.90;;;;;;4164215;28;20184;-86
2023/07/20 07:27:24;;;;;;;7.18;3.00;;;25.30;99.90;;;;;;4147866;28;20207;-86
2023/07/20 07:29:25;;;;;;;6.03;2.60;;;26.70;99.90;;;;;;4163543;28;20196;-86
2023/07/20 07:31:26;;;;;;;4.78;2.10;;;27.40;99.90;;;;;;4148076;28;20180;-88
2023/07/20 07:33:26;;;;;;;2.95;2.42;;;28.00;99.90;;;;;;4180575;28;20195;-85
2023/07/20 07:35:27;;;;;;;5.85;2.45;;;27.70;99.90;;;;;;4165356;28;20175;-86
2023/07/20 07:37:29;;;;;;;6.35;2.47;;;26.30;99.90;;;;;;4165248;28;20199;-88
2023/07/20 07:39:30;;;;;;;3.83;2.30;;;26.00;99.90;;;;;;4165326;28;20188;-86
2023/07/20 07:41:30;;;;;;;5.45;2.53;;;25.50;99.90;;;;;;4164052;28;20172;-88
2023/07/20 07:43:31;;;;;;;7.35;2.50;;;25.60;99.90;;;;;;4164057;28;20255;-86
2023/07/20 07:45:36;;;;;;;5.15;2.45;;;25.30;99.90;;;;;;4163929;28;20176;-86
2023/07/20 07:47:37;;;;;;;3.72;2.25;;;25.10;99.90;;;;;;4147804;28;20197;-86
2023/07/20 07:49:38;;;;;;;3.97;2.70;;;25.20;99.90;;;;;;4147559;28;20196;-87
2023/07/20 07:51:38;;;;;;;3.45;2.00;;;25.00;99.90;;;;;;4164044;28;20176;-86
2023/07/20 07:53:39;;;;;;;5.82;2.22;;;24.80;99.90;;;;;;4180490;28;20739;-85
2023/07/20 07:55:41;;;;;;;5.38;2.72;;;24.20;99.90;;;;;;4163699;28;20544;-85
2023/07/20 07:57:41;;;;;;;4.90;2.30;;;23.90;99.90;;;;;;4180317;28;20176;-86
2023/07/20 07:59:42;;;;;;;3.88;1.90;;;23.20;99.90;;;;;;4147194;28;20279;-85
2023/07/20 08:01:43;;;;;;;3.13;1.50;;;23.00;99.90;;;;;;4180313;28;20167;-84
2023/07/20 08:03:45;;;;;;;3.35;1.50;;;22.90;99.90;;;;;;4163815;28;20191;-88
2023/07/20 08:05:46;;;;;;;3.80;1.67;;;23.00;99.90;;;;;;4163813;28;20219;-88
2023/07/20 08:07:46;;;;;;;3.75;1.48;;;22.90;99.90;;;;;;4147472;28;20181;-85
2023/07/20 08:09:47;;;;;;;2.25;1.05;;;23.00;99.90;;;;;;4147266;28;20724;-85
2023/07/20 08:11:49;;;;;;;1.83;0.98;;;23.20;99.90;;;;;;4164885;28;20655;-85
2023/07/20 08:13:50;;;;;;;2.97;1.17;;;23.20;99.90;;;;;;4165113;28;20200;-88
2023/07/20 08:15:51;;;;;;;1.83;0.90;;;23.50;99.90;;;;;;4180520;28;20202;-87
2023/07/20 08:17:52;;;;;;;0.70;0.63;;;23.70;99.90;;;;;;4164905;28;20184;-88
2023/07/20 08:19:53;;;;;;;1.80;0.80;;;24.50;99.90;;;;;;4164621;28;20665;-89
2023/07/20 08:21:53;;;;;;;3.22;0.90;;;25.50;99.90;;;;;;4163640;28;20529;-85
2023/07/20 08:23:54;;;;;;;6.47;1.00;;;25.90;99.90;;;;;;4147378;28;20173;-85
2023/07/20 08:25:55;;;;;;;2.90;0.95;;;26.60;99.90;;;;;;4180514;28;20199;-88
2023/07/20 08:27:55;;;;;;;1.50;0.80;;;27.20;99.90;;;;;;4164218;28;20192;-88
2023/07/20 08:29:56;;;;;;;3.95;0.82;;;27.20;99.90;;;;;;4179826;28;20278;-85
2023/07/20 08:31:57;;;;;;;3.05;1.10;;;26.80;99.90;;;;;;4150039;28;20172;-88
2023/07/20 08:33:57;;;;;;;1.88;0.70;;;26.60;99.90;;;;;;4166472;28;20203;-88
2023/07/20 08:35:58;;;;;;;2.53;0.90;;;26.20;99.90;;;;;;4150121;28;20223;-85
2023/07/20 08:37:59;;;;;;;4.53;1.08;;;25.80;99.90;;;;;;4150529;28;20729;-85
2023/07/20 08:40:00;;;;;;;1.27;0.70;;;25.10;99.90;;;;;;4166707;28;20702;-88
2023/07/20 08:42:04;;;;;;;2.03;0.70;;;24.90;99.90;;;;;;4166826;28;20597;-85
2023/07/20 08:44:06;;;;;;;1.70;0.85;;;24.80;99.90;;;;;;4167745;28;20525;-88
2023/07/20 08:46:08;;;;;;;1.58;0.75;;;24.90;99.90;;;;;;4166538;28;20259;-88
2023/07/20 08:48:09;;;;;;;1.40;0.90;;;25.50;99.90;;;;;;4166229;28;20176;-87
2023/07/20 08:50:11;;;;;;;4.38;0.82;;;26.70;99.90;;;;;;4150125;28;20173;-88
2023/07/20 08:52:12;;;;;;;4.50;0.80;;;27.70;99.90;;;;;;4149859;28;20185;-88
2023/07/20 08:54:14;;;;;;;1.40;0.82;;;27.60;99.90;;;;;;4150042;28;20204;-88
2023/07/20 08:56:16;;;;;;;5.00;1.05;;;28.30;99.90;;;;;;4166541;28;20223;-85
2023/07/20 08:58:18;;;;;;;3.25;1.02;;;28.90;99.90;;;;;;4165945;28;20164;-85
2023/07/20 09:00:20;;;;;;;1.42;1.10;;;28.30;99.90;;;;;;4166265;28;20195;-85
2023/07/20 09:02:23;;;;;;;2.85;1.00;;;28.30;99.90;;;;;;4166149;28;20739;-89
2023/07/20 09:04:24;;;;;;;5.22;0.90;;;28.10;99.90;;;;;;4166452;28;20172;-85
2023/07/20 09:06:25;;;;;;;1.40;0.70;;;28.60;99.90;;;;;;4166337;28;20167;-86
2023/07/20 09:08:26;;;;;;;3.13;0.85;;;29.10;99.90;;;;;;4167300;28;20184;-85
2023/07/20 09:10:27;;;;;;;2.65;0.90;;;29.20;99.90;;;;;;4149574;28;20164;-85
2023/07/20 09:12:28;;;;;;;2.00;0.80;;;29.00;99.90;;;;;;4165887;28;20557;-84
2023/07/20 09:14:31;;;;;;;2.72;1.00;;;30.00;99.90;;;;;;4165734;28;20208;-85
2023/07/20 09:16:32;;;;;;;2.13;1.00;;;30.50;99.90;;;;;;4166299;28;20536;-85
2023/07/20 09:18:36;;;;;;;2.35;1.00;;;30.60;99.90;;;;;;4182298;28;20200;-85
2023/07/20 09:20:37;;;;;;;1.67;0.88;;;31.40;99.90;;;;;;4165936;28;20698;-86
2023/07/20 09:22:41;;;;;;;3.00;1.00;;;31.70;99.90;;;;;;4166029;28;20172;-85
2023/07/20 09:24:42;;;;;;;2.42;0.90;;;31.90;99.90;;;;;;4165778;28;20167;-85
2023/07/20 09:26:44;;;;;;;2.92;0.90;;;32.70;99.90;;;;;;4167089;28;20186;-86
2023/07/20 09:28:50;;;;;;;1.20;0.70;;;32.80;99.90;;;;;;4165852;28;20195;-83
2023/07/20 09:30:51;;;;;;;1.88;0.80;;;32.60;99.90;;;;;;4149660;28;20656;-83
2023/07/20 09:32:51;;;;;;;2.15;0.95;;;30.90;99.90;;;;;;4165619;28;20186;-83
2023/07/20 09:34:52;;;;;;;3.03;1.00;;;30.10;99.90;;;;;;4149119;28;20205;-86
2023/07/20 09:36:53;;;;;;;6.22;0.85;;;30.20;99.90;;;;;;4166838;28;20176;-86
2023/07/20 09:38:54;;;;;;;1.75;0.90;;;30.30;99.90;;;;;;4165734;28;20195;-85
2023/07/20 09:40:55;;;;;;;1.48;0.90;;;29.80;99.90;;;;;;4166031;28;20703;-85
2023/07/20 09:43:04;;;;;;;3.53;1.00;;;29.80;99.90;;;;;;4148175;28;20168;-85
2023/07/20 09:45:07;;;;;;;3.72;0.85;;;30.00;99.90;;;;;;4165396;28;20187;-86
2023/07/20 09:47:08;;;;;;;2.78;0.90;;;29.70;99.90;;;;;;4165799;28;20172;-85
2023/07/20 09:49:09;;;;;;;1.65;0.90;;;29.60;99.90;;;;;;4165343;28;20250;-89
2023/07/20 09:51:10;;;;;;;6.53;0.90;;;29.40;99.90;;;;;;4149236;28;20398;-85
2023/07/20 09:53:15;;;;;;;2.50;0.95;;;28.80;99.90;;;;;;4148810;28;20184;-89
2023/07/20 09:55:16;;;;;;;6.50;0.80;;;28.90;99.90;;;;;;4148871;28;20165;-85
2023/07/20 09:57:17;;;;;;;1.48;0.70;;;28.30;99.90;;;;;;4165514;28;20303;-84
2023/07/20 09:59:18;;;;;;;5.07;1.20;;;27.80;99.90;;;;;;4149058;28;20212;-85
2023/07/20 10:01:22;;;;;;;1.25;1.02;;;28.00;99.90;;;;;;4165363;28;20176;-85
2023/07/20 10:03:27;;;;;;;2.35;1.30;;;27.90;99.90;;;;;;4165282;28;20168;-85
2023/07/20 10:05:34;;;;;;;3.17;1.30;;;27.30;99.90;;;;;;4166402;28;20270;-87
2023/07/20 10:07:39;;;;;;;4.15;0.98;;;26.90;99.90;;;;;;4165081;28;20186;-88
2023/07/20 10:09:42;;;;;;;2.42;0.85;;;27.30;99.90;;;;;;4166154;28;20192;-84
2023/07/20 10:11:45;;;;;;;2.53;1.00;;;27.90;99.90;;;;;;4164995;28;20199;-83
2023/07/20 10:13:49;;;;;;;2.60;0.98;;;28.40;99.90;;;;;;4164906;28;20271;-85
2023/07/20 10:15:54;;;;;;;2.20;0.80;;;28.50;99.90;;;;;;4165168;28;20549;-85
2023/07/20 10:18:08;;;;;;;4.88;1.15;;;28.50;99.90;;;;;;4166200;28;20168;-85
2023/07/20 10:20:10;;;;;;;3.35;1.10;;;28.90;99.90;;;;;;4164907;28;20723;-84
2023/07/20 10:22:22;;;;;;;2.90;0.98;;;29.00;99.90;;;;;;4180822;28;20167;-85
2023/07/20 10:24:24;;;;;;;7.90;1.15;;;28.70;99.90;;;;;;4164867;28;20176;-84
2023/07/20 10:26:26;;;;;;;2.05;1.15;;;28.20;99.90;;;;;;4164840;28;20183;-85
2023/07/20 10:28:28;;;;;;;7.43;2.63;;;27.60;99.90;;;;;;4164748;28;20223;-84